Main page
METAR-TAF:

METAR-TAF

Airports :

Stockholm Arlanda Airport

Stockholm-Arlanda, Sweden

latitude: 59-39N, longitude: 017-57E, elevation: 38 m

Current weather observation

The report was made 25 minutes ago, at 06:20 UTC
Wind 10 kt from the West/Southwest
Temperature 16°C
Humidity 82%
Pressure 1015 hPa
Visibility 10 km or more
no clouds below 1500 m and no cumulonimbus

METAR: ESSA 180620Z 24010KT CAVOK 16/13 Q1015 NOSIG

Time: 08:45 (06:45 UTC)

Forecast

The report was made 1 hour and 15 minutes ago, at 05:30 UTC
Forecast valid from 18 at 06 UTC to 19 at 06 UTC
Wind 8 kt from the Southwest
Visibility 10 km or more
no clouds below 1500 m and no cumulonimbus

TAF: ESSA 180530Z 1806/1906 22008KT CAVOK

Weather observations and forecasts of more than 4000 airports (METAR and TAF reports).

The available stations are represented by yellow and red dots on the map.

Hover mouse over dot to see the name of the station.

Then click to see weather observations and forecasts.

To change the map : click on the green buttons with a black cross to zoom in, on the green button with a dash to zoom out, or on the green arrows for adjacent maps.


METAR-TAF: